sensor_id;sensor_type;location;lat;lon;timestamp;temperature;humidity
19552;DHT22;9921;47.186;9.778;2022-08-23T00:00:45;18.20;99.90
19552;DHT22;9921;47.186;9.778;2022-08-23T00:03:12;18.30;99.90
19552;DHT22;9921;47.186;9.778;2022-08-23T00:05:39;18.30;99.90
19552;DHT22;9921;47.186;9.778;2022-08-23T00:08:06;17.90;99.90
19552;DHT22;9921;47.186;9.778;2022-08-23T00:10:32;17.70;99.90
19552;DHT22;9921;47.186;9.778;2022-08-23T00:13:01;17.70;99.90
19552;DHT22;9921;47.186;9.778;2022-08-23T00:15:28;17.80;99.90
19552;DHT22;9921;47.186;9.778;2022-08-23T00:17:55;17.80;99.90
19552;DHT22;9921;47.186;9.778;2022-08-23T00:20:22;17.90;99.90
19552;DHT22;9921;47.186;9.778;2022-08-23T00:22:49;17.90;99.90
19552;DHT22;9921;47.186;9.778;2022-08-23T00:25:16;17.80;99.90
19552;DHT22;9921;47.186;9.778;2022-08-23T00:27:43;18.00;99.90
19552;DHT22;9921;47.186;9.778;2022-08-23T00:30:13;18.00;99.90
19552;DHT22;9921;47.186;9.778;2022-08-23T00:32:41;18.10;99.90
19552;DHT22;9921;47.186;9.778;2022-08-23T00:35:10;18.00;99.90
19552;DHT22;9921;47.186;9.778;2022-08-23T00:37:37;18.00;99.90
19552;DHT22;9921;47.186;9.778;2022-08-23T00:40:08;18.00;99.90
19552;DHT22;9921;47.186;9.778;2022-08-23T00:42:39;17.90;99.90
19552;DHT22;9921;47.186;9.778;2022-08-23T00:45:32;17.80;99.90
19552;DHT22;9921;47.186;9.778;2022-08-23T00:48:16;17.70;99.90
19552;DHT22;9921;47.186;9.778;2022-08-23T00:50:48;17.80;99.90
19552;DHT22;9921;47.186;9.778;2022-08-23T00:53:19;18.00;99.90
19552;DHT22;9921;47.186;9.778;2022-08-23T00:55:49;18.00;99.90
19552;DHT22;9921;47.186;9.778;2022-08-23T00:58:19;18.00;99.90
19552;DHT22;9921;47.186;9.778;2022-08-23T01:00:49;18.00;99.90
19552;DHT22;9921;47.186;9.778;2022-08-23T01:03:17;17.90;99.90
19552;DHT22;9921;47.186;9.778;2022-08-23T01:05:47;17.60;99.90
19552;DHT22;9921;47.186;9.778;2022-08-23T01:08:18;17.70;99.90
19552;DHT22;9921;47.186;9.778;2022-08-23T01:10:52;17.70;99.90
19552;DHT22;9921;47.186;9.778;2022-08-23T01:13:34;17.50;99.90
19552;DHT22;9921;47.186;9.778;2022-08-23T01:16:06;17.70;99.90
19552;DHT22;9921;47.186;9.778;2022-08-23T01:18:35;17.80;99.90
19552;DHT22;9921;47.186;9.778;2022-08-23T01:21:07;17.70;99.90
19552;DHT22;9921;47.186;9.778;2022-08-23T01:23:42;17.80;99.90
19552;DHT22;9921;47.186;9.778;2022-08-23T01:26:11;17.50;99.90
19552;DHT22;9921;47.186;9.778;2022-08-23T01:28:39;17.00;99.90
19552;DHT22;9921;47.186;9.778;2022-08-23T01:31:06;17.10;99.90
19552;DHT22;9921;47.186;9.778;2022-08-23T01:33:34;17.00;99.90
19552;DHT22;9921;47.186;9.778;2022-08-23T01:36:03;17.10;99.90
19552;DHT22;9921;47.186;9.778;2022-08-23T01:38:30;17.20;99.90
19552;DHT22;9921;47.186;9.778;2022-08-23T01:40:58;17.20;99.90
19552;DHT22;9921;47.186;9.778;2022-08-23T01:43:25;17.30;99.90
19552;DHT22;9921;47.186;9.778;2022-08-23T01:45:53;17.50;99.90
19552;DHT22;9921;47.186;9.778;2022-08-23T01:48:20;17.40;99.90
19552;DHT22;9921;47.186;9.778;2022-08-23T01:50:48;17.50;99.90
19552;DHT22;9921;47.186;9.778;2022-08-23T01:53:15;17.60;99.90
19552;DHT22;9921;47.186;9.778;2022-08-23T01:55:42;17.30;99.90
19552;DHT22;9921;47.186;9.778;2022-08-23T01:58:11;17.30;99.90
19552;DHT22;9921;47.186;9.778;2022-08-23T02:00:40;17.30;99.90
19552;DHT22;9921;47.186;9.778;2022-08-23T02:03:09;16.60;99.90
19552;DHT22;9921;47.186;9.778;2022-08-23T02:05:38;16.50;99.90
19552;DHT22;9921;47.186;9.778;2022-08-23T02:08:06;16.40;99.90
19552;DHT22;9921;47.186;9.778;2022-08-23T02:10:50;16.00;99.90
19552;DHT22;9921;47.186;9.778;2022-08-23T02:13:19;15.90;99.90
19552;DHT22;9921;47.186;9.778;2022-08-23T02:15:46;16.20;99.90
19552;DHT22;9921;47.186;9.778;2022-08-23T02:18:16;16.40;99.90
19552;DHT22;9921;47.186;9.778;2022-08-23T02:20:44;16.40;99.90
19552;DHT22;9921;47.186;9.778;2022-08-23T02:23:11;16.50;99.90
19552;DHT22;9921;47.186;9.778;2022-08-23T02:25:38;16.50;99.90
19552;DHT22;9921;47.186;9.778;2022-08-23T02:28:06;16.60;99.90
19552;DHT22;9921;47.186;9.778;2022-08-23T02:30:34;16.70;99.90
19552;DHT22;9921;47.186;9.778;2022-08-23T02:33:01;16.80;99.90
19552;DHT22;9921;47.186;9.778;2022-08-23T02:35:28;16.80;99.90
19552;DHT22;9921;47.186;9.778;2022-08-23T02:37:58;16.70;99.90
19552;DHT22;9921;47.186;9.778;2022-08-23T02:40:28;16.70;99.90
19552;DHT22;9921;47.186;9.778;2022-08-23T02:42:55;16.80;99.90
19552;DHT22;9921;47.186;9.778;2022-08-23T02:45:22;16.90;99.90
19552;DHT22;9921;47.186;9.778;2022-08-23T02:47:50;17.00;99.90
19552;DHT22;9921;47.186;9.778;2022-08-23T02:50:17;16.40;99.90
19552;DHT22;9921;47.186;9.778;2022-08-23T02:52:45;16.40;99.90
19552;DHT22;9921;47.186;9.778;2022-08-23T02:55:12;16.50;99.90
19552;DHT22;9921;47.186;9.778;2022-08-23T02:57:40;16.50;99.90
19552;DHT22;9921;47.186;9.778;2022-08-23T03:00:09;16.60;99.90
19552;DHT22;9921;47.186;9.778;2022-08-23T03:02:37;16.60;99.90
19552;DHT22;9921;47.186;9.778;2022-08-23T03:05:07;16.50;99.90
19552;DHT22;9921;47.186;9.778;2022-08-23T03:07:35;16.50;99.90
19552;DHT22;9921;47.186;9.778;2022-08-23T03:10:02;16.40;99.90
19552;DHT22;9921;47.186;9.778;2022-08-23T03:12:29;16.50;99.90
19552;DHT22;9921;47.186;9.778;2022-08-23T03:14:56;16.40;99.90
19552;DHT22;9921;47.186;9.778;2022-08-23T03:17:23;16.40;99.90
19552;DHT22;9921;47.186;9.778;2022-08-23T03:19:50;16.50;99.90
19552;DHT22;9921;47.186;9.778;2022-08-23T03:22:19;16.60;99.90
19552;DHT22;9921;47.186;9.778;2022-08-23T03:24:47;16.40;99.90
19552;DHT22;9921;47.186;9.778;2022-08-23T03:27:14;15.90;99.90
19552;DHT22;9921;47.186;9.778;2022-08-23T03:29:41;15.80;99.90
19552;DHT22;9921;47.186;9.778;2022-08-23T03:32:08;15.50;99.90
19552;DHT22;9921;47.186;9.778;2022-08-23T03:34:36;15.60;99.90
19552;DHT22;9921;47.186;9.778;2022-08-23T03:37:03;15.70;99.90
19552;DHT22;9921;47.186;9.778;2022-08-23T03:39:31;15.80;99.90
19552;DHT22;9921;47.186;9.778;2022-08-23T03:41:58;15.90;99.90
19552;DHT22;9921;47.186;9.778;2022-08-23T03:44:25;15.70;99.90
19552;DHT22;9921;47.186;9.778;2022-08-23T03:46:52;15.80;99.90
19552;DHT22;9921;47.186;9.778;2022-08-23T03:49:19;15.90;99.90
19552;DHT22;9921;47.186;9.778;2022-08-23T03:51:46;16.00;99.90
19552;DHT22;9921;47.186;9.778;2022-08-23T03:54:13;16.00;99.90
19552;DHT22;9921;47.186;9.778;2022-08-23T03:56:49;16.10;99.90
19552;DHT22;9921;47.186;9.778;2022-08-23T03:59:17;16.00;99.90
19552;DHT22;9921;47.186;9.778;2022-08-23T04:01:44;16.00;99.90
19552;DHT22;9921;47.186;9.778;2022-08-23T04:04:11;15.80;99.90
19552;DHT22;9921;47.186;9.778;2022-08-23T04:06:37;15.90;99.90
19552;DHT22;9921;47.186;9.778;2022-08-23T04:09:04;15.50;99.90
19552;DHT22;9921;47.186;9.778;2022-08-23T04:11:31;15.70;99.90
19552;DHT22;9921;47.186;9.778;2022-08-23T04:13:59;15.70;99.90
19552;DHT22;9921;47.186;9.778;2022-08-23T04:16:26;15.70;99.90
19552;DHT22;9921;47.186;9.778;2022-08-23T04:18:54;15.70;99.90
19552;DHT22;9921;47.186;9.778;2022-08-23T04:21:22;15.70;99.90
19552;DHT22;9921;47.186;9.778;2022-08-23T04:23:49;15.80;99.90
19552;DHT22;9921;47.186;9.778;2022-08-23T04:26:17;16.00;99.90
19552;DHT22;9921;47.186;9.778;2022-08-23T04:28:44;16.00;99.90
19552;DHT22;9921;47.186;9.778;2022-08-23T04:31:13;15.90;99.90
19552;DHT22;9921;47.186;9.778;2022-08-23T04:33:40;15.90;99.90
19552;DHT22;9921;47.186;9.778;2022-08-23T04:36:07;16.00;99.90
19552;DHT22;9921;47.186;9.778;2022-08-23T04:38:34;15.90;99.90
19552;DHT22;9921;47.186;9.778;2022-08-23T04:41:01;15.90;99.90
19552;DHT22;9921;47.186;9.778;2022-08-23T04:43:45;15.90;99.90
19552;DHT22;9921;47.186;9.778;2022-08-23T04:46:14;15.90;99.90
19552;DHT22;9921;47.186;9.778;2022-08-23T04:48:41;15.90;99.90
19552;DHT22;9921;47.186;9.778;2022-08-23T04:51:09;15.90;99.90
19552;DHT22;9921;47.186;9.778;2022-08-23T04:53:37;15.90;99.90
19552;DHT22;9921;47.186;9.778;2022-08-23T04:56:06;15.60;99.90
19552;DHT22;9921;47.186;9.778;2022-08-23T04:58:34;15.50;99.90
19552;DHT22;9921;47.186;9.778;2022-08-23T05:01:04;15.70;99.90
19552;DHT22;9921;47.186;9.778;2022-08-23T05:03:34;15.80;99.90
19552;DHT22;9921;47.186;9.778;2022-08-23T05:06:01;15.80;99.90
19552;DHT22;9921;47.186;9.778;2022-08-23T05:08:30;15.80;99.90
19552;DHT22;9921;47.186;9.778;2022-08-23T05:10:59;15.90;99.90
19552;DHT22;9921;47.186;9.778;2022-08-23T05:13:27;15.80;99.90
19552;DHT22;9921;47.186;9.778;2022-08-23T05:15:54;15.90;99.90
19552;DHT22;9921;47.186;9.778;2022-08-23T05:18:21;16.00;99.90
19552;DHT22;9921;47.186;9.778;2022-08-23T05:20:49;16.00;99.90
19552;DHT22;9921;47.186;9.778;2022-08-23T05:23:16;16.00;99.90
19552;DHT22;9921;47.186;9.778;2022-08-23T05:25:43;16.00;99.90
19552;DHT22;9921;47.186;9.778;2022-08-23T05:28:19;16.00;99.90
19552;DHT22;9921;47.186;9.778;2022-08-23T05:30:54;15.80;99.90
19552;DHT22;9921;47.186;9.778;2022-08-23T05:33:21;15.90;99.90
19552;DHT22;9921;47.186;9.778;2022-08-23T05:35:50;15.80;99.90
19552;DHT22;9921;47.186;9.778;2022-08-23T05:38:17;15.90;99.90
19552;DHT22;9921;47.186;9.778;2022-08-23T05:40:46;15.90;99.90
19552;DHT22;9921;47.186;9.778;2022-08-23T05:43:14;15.80;99.90
19552;DHT22;9921;47.186;9.778;2022-08-23T05:45:41;15.90;99.90
19552;DHT22;9921;47.186;9.778;2022-08-23T05:48:08;15.90;99.90
19552;DHT22;9921;47.186;9.778;2022-08-23T05:50:36;15.90;99.90
19552;DHT22;9921;47.186;9.778;2022-08-23T05:53:05;15.90;99.90
19552;DHT22;9921;47.186;9.778;2022-08-23T05:55:34;16.00;99.90
19552;DHT22;9921;47.186;9.778;2022-08-23T05:58:01;16.00;99.90
19552;DHT22;9921;47.186;9.778;2022-08-23T06:00:28;16.00;99.90
19552;DHT22;9921;47.186;9.778;2022-08-23T06:02:55;16.00;99.90
19552;DHT22;9921;47.186;9.778;2022-08-23T06:05:21;16.00;99.90
19552;DHT22;9921;47.186;9.778;2022-08-23T06:07:48;16.20;99.90
19552;DHT22;9921;47.186;9.778;2022-08-23T06:10:18;16.30;99.90
19552;DHT22;9921;47.186;9.778;2022-08-23T06:12:46;16.40;99.90
19552;DHT22;9921;47.186;9.778;2022-08-23T06:15:13;16.20;99.90
19552;DHT22;9921;47.186;9.778;2022-08-23T06:17:40;16.20;99.90
19552;DHT22;9921;47.186;9.778;2022-08-23T06:20:07;16.40;99.90
19552;DHT22;9921;47.186;9.778;2022-08-23T06:22:35;16.50;99.90
19552;DHT22;9921;47.186;9.778;2022-08-23T06:25:02;16.60;99.90
19552;DHT22;9921;47.186;9.778;2022-08-23T06:27:30;16.70;99.90
19552;DHT22;9921;47.186;9.778;2022-08-23T06:29:57;16.90;99.90
19552;DHT22;9921;47.186;9.778;2022-08-23T06:32:24;17.00;99.90
19552;DHT22;9921;47.186;9.778;2022-08-23T06:34:51;17.10;99.90
19552;DHT22;9921;47.186;9.778;2022-08-23T06:37:18;17.20;99.90
19552;DHT22;9921;47.186;9.778;2022-08-23T06:39:45;17.40;99.90
19552;DHT22;9921;47.186;9.778;2022-08-23T06:42:13;17.60;99.90
19552;DHT22;9921;47.186;9.778;2022-08-23T06:44:42;17.60;99.90
19552;DHT22;9921;47.186;9.778;2022-08-23T06:47:09;17.60;99.90
19552;DHT22;9921;47.186;9.778;2022-08-23T06:49:36;17.70;99.90
19552;DHT22;9921;47.186;9.778;2022-08-23T06:52:03;17.80;99.90
19552;DHT22;9921;47.186;9.778;2022-08-23T06:54:32;18.00;99.90
19552;DHT22;9921;47.186;9.778;2022-08-23T06:57:01;17.90;99.90
19552;DHT22;9921;47.186;9.778;2022-08-23T06:59:28;18.00;99.90
19552;DHT22;9921;47.186;9.778;2022-08-23T07:01:58;18.20;99.90
19552;DHT22;9921;47.186;9.778;2022-08-23T07:04:27;18.30;99.90
19552;DHT22;9921;47.186;9.778;2022-08-23T07:06:54;18.50;99.90
19552;DHT22;9921;47.186;9.778;2022-08-23T07:09:22;18.60;99.90
19552;DHT22;9921;47.186;9.778;2022-08-23T07:11:49;18.60;99.90
19552;DHT22;9921;47.186;9.778;2022-08-23T07:14:19;18.80;99.90
19552;DHT22;9921;47.186;9.778;2022-08-23T07:16:48;18.80;99.90
19552;DHT22;9921;47.186;9.778;2022-08-23T07:19:18;18.80;99.90
19552;DHT22;9921;47.186;9.778;2022-08-23T07:21:45;18.90;99.90
19552;DHT22;9921;47.186;9.778;2022-08-23T07:24:12;19.10;99.90
19552;DHT22;9921;47.186;9.778;2022-08-23T07:26:41;19.10;99.90
19552;DHT22;9921;47.186;9.778;2022-08-23T07:29:09;19.20;99.90
19552;DHT22;9921;47.186;9.778;2022-08-23T07:31:40;19.20;99.90
19552;DHT22;9921;47.186;9.778;2022-08-23T07:34:07;19.40;99.90
19552;DHT22;9921;47.186;9.778;2022-08-23T07:36:37;19.40;99.90
19552;DHT22;9921;47.186;9.778;2022-08-23T07:39:05;19.60;99.90
19552;DHT22;9921;47.186;9.778;2022-08-23T07:41:33;19.70;99.90
19552;DHT22;9921;47.186;9.778;2022-08-23T07:44:02;19.80;99.90
19552;DHT22;9921;47.186;9.778;2022-08-23T07:46:29;19.80;99.90
19552;DHT22;9921;47.186;9.778;2022-08-23T07:48:58;19.90;99.90
19552;DHT22;9921;47.186;9.778;2022-08-23T07:51:25;20.00;99.90
19552;DHT22;9921;47.186;9.778;2022-08-23T07:53:54;20.00;99.90
19552;DHT22;9921;47.186;9.778;2022-08-23T07:56:21;20.10;99.90
19552;DHT22;9921;47.186;9.778;2022-08-23T07:58:48;20.20;99.90
19552;DHT22;9921;47.186;9.778;2022-08-23T08:01:17;20.20;99.90
19552;DHT22;9921;47.186;9.778;2022-08-23T08:03:48;20.30;99.90
19552;DHT22;9921;47.186;9.778;2022-08-23T08:06:16;20.40;99.90
19552;DHT22;9921;47.186;9.778;2022-08-23T08:08:44;20.50;99.90
19552;DHT22;9921;47.186;9.778;2022-08-23T08:11:14;20.60;99.90
19552;DHT22;9921;47.186;9.778;2022-08-23T08:13:44;20.80;99.90
19552;DHT22;9921;47.186;9.778;2022-08-23T08:16:20;20.90;99.90
19552;DHT22;9921;47.186;9.778;2022-08-23T08:18:47;21.10;99.90
19552;DHT22;9921;47.186;9.778;2022-08-23T08:21:17;21.50;99.90
19552;DHT22;9921;47.186;9.778;2022-08-23T08:23:47;22.40;99.90
19552;DHT22;9921;47.186;9.778;2022-08-23T08:26:16;24.20;99.90
19552;DHT22;9921;47.186;9.778;2022-08-23T08:28:43;26.80;99.90
19552;DHT22;9921;47.186;9.778;2022-08-23T08:31:11;29.50;99.90
19552;DHT22;9921;47.186;9.778;2022-08-23T08:33:39;32.20;98.60
19552;DHT22;9921;47.186;9.778;2022-08-23T08:36:06;34.30;92.70
19552;DHT22;9921;47.186;9.778;2022-08-23T08:38:37;36.00;86.20
19552;DHT22;9921;47.186;9.778;2022-08-23T08:41:10;37.50;78.50
19552;DHT22;9921;47.186;9.778;2022-08-23T08:43:51;38.80;68.20
19552;DHT22;9921;47.186;9.778;2022-08-23T08:46:26;39.30;64.40
19552;DHT22;9921;47.186;9.778;2022-08-23T08:48:57;39.50;61.70
19552;DHT22;9921;47.186;9.778;2022-08-23T08:51:36;39.60;59.50
19552;DHT22;9921;47.186;9.778;2022-08-23T08:54:10;40.00;58.40
19552;DHT22;9921;47.186;9.778;2022-08-23T08:56:39;40.20;55.20
19552;DHT22;9921;47.186;9.778;2022-08-23T08:59:11;40.30;56.00
19552;DHT22;9921;47.186;9.778;2022-08-23T09:01:39;40.50;56.10
19552;DHT22;9921;47.186;9.778;2022-08-23T09:04:07;40.70;56.30
19552;DHT22;9921;47.186;9.778;2022-08-23T09:06:41;41.40;55.30
19552;DHT22;9921;47.186;9.778;2022-08-23T09:09:18;41.60;50.90
19552;DHT22;9921;47.186;9.778;2022-08-23T09:11:54;42.10;52.20
19552;DHT22;9921;47.186;9.778;2022-08-23T09:14:46;42.20;52.00
19552;DHT22;9921;47.186;9.778;2022-08-23T09:17:23;42.30;50.40
19552;DHT22;9921;47.186;9.778;2022-08-23T09:19:55;42.80;48.90
19552;DHT22;9921;47.186;9.778;2022-08-23T09:22:29;43.10;49.10
19552;DHT22;9921;47.186;9.778;2022-08-23T09:24:59;43.30;49.40
19552;DHT22;9921;47.186;9.778;2022-08-23T09:27:26;43.00;48.30
19552;DHT22;9921;47.186;9.778;2022-08-23T09:29:56;43.00;47.00
19552;DHT22;9921;47.186;9.778;2022-08-23T09:32:30;43.00;48.20
19552;DHT22;9921;47.186;9.778;2022-08-23T09:35:10;42.80;46.30
19552;DHT22;9921;47.186;9.778;2022-08-23T09:37:59;43.30;47.40
19552;DHT22;9921;47.186;9.778;2022-08-23T09:40:34;43.50;49.10
19552;DHT22;9921;47.186;9.778;2022-08-23T09:43:07;43.20;49.40
19552;DHT22;9921;47.186;9.778;2022-08-23T09:45:39;43.30;48.10
19552;DHT22;9921;47.186;9.778;2022-08-23T09:48:13;43.90;46.10
19552;DHT22;9921;47.186;9.778;2022-08-23T09:50:46;44.00;46.70
19552;DHT22;9921;47.186;9.778;2022-08-23T09:53:23;43.90;48.20
19552;DHT22;9921;47.186;9.778;2022-08-23T09:55:54;43.90;46.40
19552;DHT22;9921;47.186;9.778;2022-08-23T09:58:27;43.80;47.70
19552;DHT22;9921;47.186;9.778;2022-08-23T10:01:09;43.50;47.90
19552;DHT22;9921;47.186;9.778;2022-08-23T10:03:39;43.80;46.40
19552;DHT22;9921;47.186;9.778;2022-08-23T10:06:08;43.70;47.80
19552;DHT22;9921;47.186;9.778;2022-08-23T10:08:50;44.00;46.30
19552;DHT22;9921;47.186;9.778;2022-08-23T10:11:20;44.00;46.10
19552;DHT22;9921;47.186;9.778;2022-08-23T10:13:48;43.90;46.20
19552;DHT22;9921;47.186;9.778;2022-08-23T10:16:23;43.80;46.60
19552;DHT22;9921;47.186;9.778;2022-08-23T10:19:00;43.70;45.10
19552;DHT22;9921;47.186;9.778;2022-08-23T10:21:36;43.70;43.20
19552;DHT22;9921;47.186;9.778;2022-08-23T10:24:18;43.80;44.60
19552;DHT22;9921;47.186;9.778;2022-08-23T10:26:54;43.80;43.20
19552;DHT22;9921;47.186;9.778;2022-08-23T10:29:31;44.10;43.00
19552;DHT22;9921;47.186;9.778;2022-08-23T10:32:14;44.10;43.90
19552;DHT22;9921;47.186;9.778;2022-08-23T10:34:52;43.80;42.20
19552;DHT22;9921;47.186;9.778;2022-08-23T10:37:35;43.70;41.80
19552;DHT22;9921;47.186;9.778;2022-08-23T10:40:09;43.30;42.30
19552;DHT22;9921;47.186;9.778;2022-08-23T10:42:49;43.20;42.80
19552;DHT22;9921;47.186;9.778;2022-08-23T10:45:24;43.30;41.40
19552;DHT22;9921;47.186;9.778;2022-08-23T10:48:11;43.00;41.20
19552;DHT22;9921;47.186;9.778;2022-08-23T10:50:43;42.90;41.00
19552;DHT22;9921;47.186;9.778;2022-08-23T10:53:14;42.50;40.00
19552;DHT22;9921;47.186;9.778;2022-08-23T10:55:46;42.30;42.90
19552;DHT22;9921;47.186;9.778;2022-08-23T10:58:29;42.20;42.40
19552;DHT22;9921;47.186;9.778;2022-08-23T11:00:57;42.10;43.40
19552;DHT22;9921;47.186;9.778;2022-08-23T11:03:30;42.40;44.60
19552;DHT22;9921;47.186;9.778;2022-08-23T11:06:23;42.50;42.60
19552;DHT22;9921;47.186;9.778;2022-08-23T11:08:58;42.50;41.60
19552;DHT22;9921;47.186;9.778;2022-08-23T11:11:40;42.40;41.40
19552;DHT22;9921;47.186;9.778;2022-08-23T11:14:09;42.10;41.50
19552;DHT22;9921;47.186;9.778;2022-08-23T11:16:37;42.40;43.60
19552;DHT22;9921;47.186;9.778;2022-08-23T11:19:12;42.30;43.70
19552;DHT22;9921;47.186;9.778;2022-08-23T11:21:46;42.10;42.20
19552;DHT22;9921;47.186;9.778;2022-08-23T11:24:48;41.90;42.50
19552;DHT22;9921;47.186;9.778;2022-08-23T11:27:36;41.50;41.30
19552;DHT22;9921;47.186;9.778;2022-08-23T11:33:22;41.50;42.70
19552;DHT22;9921;47.186;9.778;2022-08-23T11:35:53;41.40;41.60
19552;DHT22;9921;47.186;9.778;2022-08-23T11:41:26;41.00;41.80
19552;DHT22;9921;47.186;9.778;2022-08-23T11:44:15;40.80;41.60
19552;DHT22;9921;47.186;9.778;2022-08-23T11:46:56;40.60;41.00
19552;DHT22;9921;47.186;9.778;2022-08-23T11:49:49;40.30;41.70
19552;DHT22;9921;47.186;9.778;2022-08-23T11:52:43;40.00;44.20
19552;DHT22;9921;47.186;9.778;2022-08-23T11:55:24;39.80;43.30
19552;DHT22;9921;47.186;9.778;2022-08-23T11:58:04;39.70;44.80
19552;DHT22;9921;47.186;9.778;2022-08-23T12:00:52;39.80;44.50
19552;DHT22;9921;47.186;9.778;2022-08-23T12:03:23;39.20;41.90
19552;DHT22;9921;47.186;9.778;2022-08-23T12:06:11;39.00;43.70
19552;DHT22;9921;47.186;9.778;2022-08-23T12:08:50;38.90;46.30
19552;DHT22;9921;47.186;9.778;2022-08-23T12:11:20;38.50;48.10
19552;DHT22;9921;47.186;9.778;2022-08-23T12:13:52;38.60;46.70
19552;DHT22;9921;47.186;9.778;2022-08-23T12:16:30;38.30;47.20
19552;DHT22;9921;47.186;9.778;2022-08-23T12:19:00;38.20;48.10
19552;DHT22;9921;47.186;9.778;2022-08-23T12:21:32;38.10;48.60
19552;DHT22;9921;47.186;9.778;2022-08-23T12:24:12;38.00;50.50
19552;DHT22;9921;47.186;9.778;2022-08-23T12:26:45;37.40;49.90
19552;DHT22;9921;47.186;9.778;2022-08-23T12:29:23;37.00;48.40
19552;DHT22;9921;47.186;9.778;2022-08-23T12:31:59;36.80;50.00
19552;DHT22;9921;47.186;9.778;2022-08-23T12:34:36;36.40;50.70
19552;DHT22;9921;47.186;9.778;2022-08-23T12:37:09;36.20;52.70
19552;DHT22;9921;47.186;9.778;2022-08-23T12:39:50;36.00;50.80
19552;DHT22;9921;47.186;9.778;2022-08-23T12:42:24;35.80;52.30
19552;DHT22;9921;47.186;9.778;2022-08-23T12:45:00;35.60;54.90
19552;DHT22;9921;47.186;9.778;2022-08-23T12:47:28;35.30;53.70
19552;DHT22;9921;47.186;9.778;2022-08-23T12:49:58;34.90;52.20
19552;DHT22;9921;47.186;9.778;2022-08-23T12:52:28;34.50;54.60
19552;DHT22;9921;47.186;9.778;2022-08-23T12:54:57;34.00;53.50
19552;DHT22;9921;47.186;9.778;2022-08-23T12:57:34;33.60;53.60
19552;DHT22;9921;47.186;9.778;2022-08-23T13:00:14;33.20;54.60
19552;DHT22;9921;47.186;9.778;2022-08-23T13:02:48;32.80;54.90
19552;DHT22;9921;47.186;9.778;2022-08-23T13:05:25;32.60;56.60
19552;DHT22;9921;47.186;9.778;2022-08-23T13:07:53;32.40;55.40
19552;DHT22;9921;47.186;9.778;2022-08-23T13:10:22;32.20;59.30
19552;DHT22;9921;47.186;9.778;2022-08-23T13:12:49;32.10;59.70
19552;DHT22;9921;47.186;9.778;2022-08-23T13:15:42;32.00;57.20
19552;DHT22;9921;47.186;9.778;2022-08-23T13:18:09;31.80;59.20
19552;DHT22;9921;47.186;9.778;2022-08-23T13:20:36;31.70;56.90
19552;DHT22;9921;47.186;9.778;2022-08-23T13:23:05;31.50;59.50
19552;DHT22;9921;47.186;9.778;2022-08-23T13:25:38;31.30;60.50
19552;DHT22;9921;47.186;9.778;2022-08-23T13:28:07;31.30;59.10
19552;DHT22;9921;47.186;9.778;2022-08-23T13:30:58;31.30;59.80
19552;DHT22;9921;47.186;9.778;2022-08-23T13:33:25;31.30;59.70
19552;DHT22;9921;47.186;9.778;2022-08-23T13:36:06;31.20;59.10
19552;DHT22;9921;47.186;9.778;2022-08-23T13:38:34;31.20;58.70
19552;DHT22;9921;47.186;9.778;2022-08-23T13:41:04;31.10;59.70
19552;DHT22;9921;47.186;9.778;2022-08-23T13:43:36;31.10;61.80
19552;DHT22;9921;47.186;9.778;2022-08-23T13:46:13;31.00;61.00
19552;DHT22;9921;47.186;9.778;2022-08-23T13:48:46;30.80;61.70
19552;DHT22;9921;47.186;9.778;2022-08-23T13:51:22;30.80;62.70
19552;DHT22;9921;47.186;9.778;2022-08-23T13:53:51;30.70;61.50
19552;DHT22;9921;47.186;9.778;2022-08-23T13:56:20;30.80;62.10
19552;DHT22;9921;47.186;9.778;2022-08-23T13:58:53;30.80;62.40
19552;DHT22;9921;47.186;9.778;2022-08-23T14:01:21;30.70;60.00
19552;DHT22;9921;47.186;9.778;2022-08-23T14:03:48;30.70;63.80
19552;DHT22;9921;47.186;9.778;2022-08-23T14:06:15;30.80;62.40
19552;DHT22;9921;47.186;9.778;2022-08-23T14:08:42;30.60;60.70
19552;DHT22;9921;47.186;9.778;2022-08-23T14:11:10;30.50;61.60
19552;DHT22;9921;47.186;9.778;2022-08-23T14:13:41;30.60;62.60
19552;DHT22;9921;47.186;9.778;2022-08-23T14:16:11;30.50;63.20
19552;DHT22;9921;47.186;9.778;2022-08-23T14:18:39;30.50;63.20
19552;DHT22;9921;47.186;9.778;2022-08-23T14:21:07;30.60;64.90
19552;DHT22;9921;47.186;9.778;2022-08-23T14:23:34;30.60;63.20
19552;DHT22;9921;47.186;9.778;2022-08-23T14:26:01;30.50;62.50
19552;DHT22;9921;47.186;9.778;2022-08-23T14:28:28;30.50;63.00
19552;DHT22;9921;47.186;9.778;2022-08-23T14:30:57;30.40;61.00
19552;DHT22;9921;47.186;9.778;2022-08-23T14:33:24;30.30;62.10
19552;DHT22;9921;47.186;9.778;2022-08-23T14:35:51;30.30;62.80
19552;DHT22;9921;47.186;9.778;2022-08-23T14:38:18;30.20;60.20
19552;DHT22;9921;47.186;9.778;2022-08-23T14:40:51;30.00;61.50
19552;DHT22;9921;47.186;9.778;2022-08-23T14:43:18;30.00;60.70
19552;DHT22;9921;47.186;9.778;2022-08-23T14:45:47;29.90;60.90
19552;DHT22;9921;47.186;9.778;2022-08-23T14:48:15;29.90;61.40
19552;DHT22;9921;47.186;9.778;2022-08-23T14:50:43;29.70;64.40
19552;DHT22;9921;47.186;9.778;2022-08-23T14:53:11;29.80;61.80
19552;DHT22;9921;47.186;9.778;2022-08-23T14:55:38;29.60;59.70
19552;DHT22;9921;47.186;9.778;2022-08-23T14:58:05;29.60;62.40
19552;DHT22;9921;47.186;9.778;2022-08-23T15:00:33;29.50;62.60
19552;DHT22;9921;47.186;9.778;2022-08-23T15:03:02;29.50;62.60
19552;DHT22;9921;47.186;9.778;2022-08-23T15:05:31;29.40;62.30
19552;DHT22;9921;47.186;9.778;2022-08-23T15:07:58;29.30;62.10
19552;DHT22;9921;47.186;9.778;2022-08-23T15:10:25;29.20;62.70
19552;DHT22;9921;47.186;9.778;2022-08-23T15:12:51;29.10;60.60
19552;DHT22;9921;47.186;9.778;2022-08-23T15:15:19;29.00;63.20
19552;DHT22;9921;47.186;9.778;2022-08-23T15:17:48;28.80;62.80
19552;DHT22;9921;47.186;9.778;2022-08-23T15:20:17;28.70;62.40
19552;DHT22;9921;47.186;9.778;2022-08-23T15:22:46;28.50;63.10
19552;DHT22;9921;47.186;9.778;2022-08-23T15:25:13;28.40;62.80
19552;DHT22;9921;47.186;9.778;2022-08-23T15:27:41;28.20;62.30
19552;DHT22;9921;47.186;9.778;2022-08-23T15:30:09;28.00;65.00
19552;DHT22;9921;47.186;9.778;2022-08-23T15:32:37;27.80;63.90
19552;DHT22;9921;47.186;9.778;2022-08-23T15:35:05;27.60;63.10
19552;DHT22;9921;47.186;9.778;2022-08-23T15:37:32;27.50;63.80
19552;DHT22;9921;47.186;9.778;2022-08-23T15:40:03;27.40;64.10
19552;DHT22;9921;47.186;9.778;2022-08-23T15:42:31;27.40;63.50
19552;DHT22;9921;47.186;9.778;2022-08-23T15:44:58;27.20;63.20
19552;DHT22;9921;47.186;9.778;2022-08-23T15:47:27;27.20;63.40
19552;DHT22;9921;47.186;9.778;2022-08-23T15:49:56;27.10;64.80
19552;DHT22;9921;47.186;9.778;2022-08-23T15:52:25;27.00;65.40
19552;DHT22;9921;47.186;9.778;2022-08-23T15:54:53;27.00;65.60
19552;DHT22;9921;47.186;9.778;2022-08-23T15:57:24;26.90;66.50
19552;DHT22;9921;47.186;9.778;2022-08-23T15:59:52;26.90;65.60
19552;DHT22;9921;47.186;9.778;2022-08-23T16:02:19;26.90;65.50
19552;DHT22;9921;47.186;9.778;2022-08-23T16:04:46;26.90;66.00
19552;DHT22;9921;47.186;9.778;2022-08-23T16:07:15;26.90;65.30
19552;DHT22;9921;47.186;9.778;2022-08-23T16:09:43;26.90;65.90
19552;DHT22;9921;47.186;9.778;2022-08-23T16:12:10;26.80;65.50